createdAt,value
2023-02-06T00:00:20.286Z,34.17
2023-02-06T00:03:06.677Z,30.38
2023-02-06T00:05:59.207Z,34.92
2023-02-06T00:24:18.671Z,45.40
2023-02-06T00:27:06.311Z,36.17
2023-02-06T00:29:52.679Z,35.40
2023-02-06T00:32:39.748Z,32.42
2023-02-06T00:35:26.791Z,39.20
2023-02-06T00:38:13.454Z,41.85
2023-02-06T00:41:00.508Z,38.83
2023-02-06T00:43:48.157Z,30.88
2023-02-06T00:46:34.794Z,34.28
2023-02-06T00:49:21.527Z,36.25
2023-02-06T00:52:08.349Z,42.72
2023-02-06T00:54:55.089Z,30.45
2023-02-06T00:57:41.498Z,42.05
2023-02-06T01:00:29.192Z,39.00
2023-02-06T01:03:17.215Z,35.55
2023-02-06T01:06:04.109Z,33.80
2023-02-06T01:08:50.800Z,40.08
2023-02-06T01:11:37.463Z,44.47
2023-02-06T01:14:24.562Z,33.95
2023-02-06T01:17:12.552Z,31.65
2023-02-06T01:19:59.499Z,32.45
2023-02-06T01:22:46.363Z,25.85
2023-02-06T01:25:33.460Z,28.77
2023-02-06T01:28:20.361Z,39.42
2023-02-06T01:31:12.041Z,43.58
2023-02-06T01:34:01.573Z,29.17
2023-02-06T01:36:48.218Z,30.87
2023-02-06T01:39:35.556Z,55.53
2023-02-06T01:42:22.374Z,32.70
2023-02-06T01:45:38.924Z,27.77
2023-02-06T01:48:31.483Z,32.08
2023-02-06T01:51:22.448Z,31.90
2023-02-06T01:54:10.576Z,31.65
2023-02-06T01:57:02.911Z,37.38
2023-02-06T01:59:53.740Z,31.58
2023-02-06T02:02:48.372Z,31.30
2023-02-06T02:05:36.624Z,25.75
2023-02-06T02:08:32.668Z,30.52
2023-02-06T02:11:24.283Z,34.17
2023-02-06T02:14:13.473Z,38.30
2023-02-06T02:17:15.804Z,27.15
2023-02-06T02:20:40.839Z,37.33
2023-02-06T02:23:37.656Z,29.45
2023-02-06T02:26:56.494Z,27.80
2023-02-06T02:30:10.912Z,40.60
2023-02-06T02:33:28.813Z,30.85
2023-02-06T02:36:23.529Z,45.42
2023-02-06T02:39:19.117Z,39.88
2023-02-06T02:42:14.602Z,36.88
2023-02-06T02:45:07.652Z,36.67
2023-02-06T02:47:59.356Z,31.27
2023-02-06T02:50:46.279Z,22.02
2023-02-06T02:53:34.395Z,36.75
2023-02-06T02:56:23.794Z,34.72
2023-02-06T02:59:19.218Z,27.27
2023-02-06T03:02:09.047Z,38.90
2023-02-06T03:04:59.251Z,24.55
2023-02-06T03:07:59.198Z,31.58
2023-02-06T03:10:53.904Z,29.27
2023-02-06T03:13:45.317Z,38.30
2023-02-06T03:16:39.017Z,27.33
2023-02-06T03:19:30.193Z,24.08
2023-02-06T03:22:17.769Z,27.15
2023-02-06T03:25:08.067Z,33.30
2023-02-06T03:30:49.134Z,25.92
2023-02-06T03:33:40.986Z,33.42
2023-02-06T03:36:27.884Z,28.67
2023-02-06T03:39:14.502Z,25.13
2023-02-06T03:42:04.562Z,32.92
2023-02-06T03:45:01.192Z,25.23
2023-02-06T03:47:49.791Z,24.90
2023-02-06T03:50:37.379Z,28.63
2023-02-06T03:53:26.554Z,24.02
2023-02-06T03:56:17.176Z,25.83
2023-02-06T03:59:04.243Z,25.05
2023-02-06T04:01:55.050Z,27.85
2023-02-06T04:04:43.450Z,29.60
2023-02-06T04:07:32.133Z,20.73
2023-02-06T04:10:18.594Z,40.08
2023-02-06T04:13:05.330Z,26.30
2023-02-06T04:15:52.050Z,19.20
2023-02-06T04:18:39.979Z,26.23
2023-02-06T04:21:26.614Z,31.65
2023-02-06T04:24:13.177Z,32.65
2023-02-06T04:27:00.114Z,24.48
2023-02-06T04:29:46.582Z,28.42
2023-02-06T04:32:33.763Z,34.10
2023-02-06T04:35:21.501Z,38.30
2023-02-06T04:38:08.123Z,22.08
2023-02-06T04:40:54.807Z,31.88
2023-02-06T04:43:41.590Z,32.05
2023-02-06T04:46:28.394Z,35.42
2023-02-06T04:49:15.408Z,36.42
2023-02-06T04:52:03.777Z,19.90
2023-02-06T04:54:50.045Z,38.10
2023-02-06T04:57:36.616Z,28.10
2023-02-06T05:00:23.585Z,43.72
2023-02-06T05:03:10.337Z,26.45
2023-02-06T05:05:59.670Z,25.63
2023-02-06T05:08:47.915Z,33.83
2023-02-06T05:11:34.925Z,40.33
2023-02-06T05:14:21.830Z,45.97
2023-02-06T05:17:08.170Z,32.17
2023-02-06T05:19:56.447Z,27.05
2023-02-06T05:22:44.592Z,38.63
2023-02-06T05:25:32.515Z,31.17
2023-02-06T05:28:19.357Z,30.50
2023-02-06T05:31:06.079Z,19.80
2023-02-06T05:33:52.959Z,30.10
2023-02-06T05:36:39.273Z,36.53
2023-02-06T05:39:27.119Z,38.63
2023-02-06T05:42:14.745Z,37.50
2023-02-06T05:45:01.264Z,30.52
2023-02-06T05:47:47.795Z,37.45
2023-02-06T05:50:34.393Z,34.45
2023-02-06T05:53:20.937Z,25.92
2023-02-06T05:56:08.283Z,40.95
2023-02-06T05:58:56.267Z,24.95
2023-02-06T06:01:42.813Z,40.13
2023-02-06T06:04:29.593Z,33.63
2023-02-06T06:07:17.078Z,38.78
2023-02-06T06:10:03.786Z,36.97
2023-02-06T06:12:50.818Z,40.28
2023-02-06T06:15:39.080Z,36.67
2023-02-06T06:18:26.039Z,66.47
2023-02-06T06:21:12.473Z,34.70
2023-02-06T06:23:59.176Z,34.13
2023-02-06T06:26:45.798Z,35.75
2023-02-06T06:29:32.281Z,30.60
2023-02-06T06:32:20.907Z,50.03
2023-02-06T06:35:09.090Z,42.47
2023-02-06T06:37:55.603Z,54.53
2023-02-06T06:40:42.935Z,37.75
2023-02-06T06:43:30.443Z,46.00
2023-02-06T06:46:17.150Z,32.72
2023-02-06T06:49:05.140Z,24.83
2023-02-06T06:51:52.414Z,37.05
2023-02-06T06:54:39.039Z,45.25
2023-02-06T06:57:25.771Z,29.83
2023-02-06T07:00:14.218Z,43.05
2023-02-06T07:03:01.402Z,33.53
2023-02-06T07:05:50.332Z,41.47
2023-02-06T07:08:41.903Z,39.67
2023-02-06T07:11:28.872Z,36.15
2023-02-06T07:14:15.755Z,29.05
2023-02-06T07:17:02.529Z,31.45
2023-02-06T07:19:51.511Z,62.17
2023-02-06T07:22:39.364Z,38.53
2023-02-06T07:25:26.156Z,51.58
2023-02-06T07:28:13.073Z,42.22
2023-02-06T07:31:01.514Z,37.97
2023-02-06T07:33:49.008Z,46.60
2023-02-06T07:36:36.368Z,30.77
2023-02-06T07:39:24.396Z,29.80
2023-02-06T07:42:12.116Z,46.83
2023-02-06T07:45:10.984Z,40.85
2023-02-06T07:47:57.782Z,42.88
2023-02-06T07:50:44.176Z,25.08
2023-02-06T07:53:30.842Z,40.17
2023-02-06T07:56:23.207Z,27.30
2023-02-06T07:59:10.419Z,29.42
2023-02-06T08:01:56.973Z,30.77
2023-02-06T08:04:43.933Z,29.05
2023-02-06T08:07:30.946Z,29.75
2023-02-06T08:10:17.774Z,28.83
2023-02-06T08:13:05.947Z,24.65
2023-02-06T08:15:52.714Z,31.58
2023-02-06T08:18:39.866Z,30.10
2023-02-06T08:21:27.013Z,18.13
2023-02-06T08:24:14.355Z,37.60
2023-02-06T08:27:01.063Z,37.80
2023-02-06T08:29:49.146Z,30.25
2023-02-06T08:32:36.321Z,31.60
2023-02-06T08:35:22.952Z,29.88
2023-02-06T08:38:09.812Z,36.08
2023-02-06T08:40:56.441Z,25.95
2023-02-06T08:43:43.256Z,26.50
2023-02-06T08:46:33.164Z,40.55
2023-02-06T08:49:21.330Z,27.45
2023-02-06T08:52:08.097Z,32.20
2023-02-06T08:54:54.810Z,29.23
2023-02-06T08:57:41.533Z,33.58
2023-02-06T09:00:28.682Z,27.58
2023-02-06T09:03:16.812Z,35.35
2023-02-06T09:06:09.694Z,29.83
2023-02-06T09:08:58.199Z,37.25
2023-02-06T09:11:45.086Z,38.80
2023-02-06T09:14:32.222Z,26.60
2023-02-06T09:17:18.810Z,32.38
2023-02-06T09:20:08.125Z,24.63
2023-02-06T09:22:55.111Z,28.05
2023-02-06T09:25:42.132Z,29.02
2023-02-06T09:28:28.731Z,38.80
2023-02-06T09:31:15.658Z,32.15
2023-02-06T09:34:02.956Z,44.97
2023-02-06T09:36:51.177Z,26.65
2023-02-06T09:39:38.035Z,40.53
2023-02-06T09:42:33.834Z,34.88
2023-02-06T09:45:23.588Z,29.77
2023-02-06T09:48:18.459Z,25.73
2023-02-06T09:51:16.520Z,29.08
2023-02-06T09:54:13.487Z,25.63
2023-02-06T09:57:09.114Z,26.65
2023-02-06T10:00:01.267Z,22.55
2023-02-06T10:03:04.535Z,36.95
2023-02-06T10:06:07.137Z,31.98
2023-02-06T10:09:02.187Z,20.52
2023-02-06T10:11:56.942Z,27.73
2023-02-06T10:14:49.851Z,22.63
2023-02-06T10:17:43.669Z,31.48
2023-02-06T10:20:34.708Z,31.05
2023-02-06T10:23:25.865Z,20.77
2023-02-06T10:26:18.263Z,25.23
2023-02-06T10:29:07.852Z,25.23
2023-02-06T10:32:10.341Z,21.70
2023-02-06T10:35:21.206Z,27.77
2023-02-06T10:38:27.218Z,25.20
2023-02-06T10:41:23.979Z,31.13
2023-02-06T10:44:23.005Z,25.38
2023-02-06T10:47:22.639Z,24.38
2023-02-06T10:50:20.397Z,23.08
2023-02-06T10:53:16.045Z,22.73
2023-02-06T10:56:05.916Z,28.70
2023-02-06T10:58:57.145Z,34.30
2023-02-06T11:01:48.406Z,16.88
2023-02-06T11:04:38.732Z,26.02
2023-02-06T11:07:30.908Z,23.23
2023-02-06T11:10:20.270Z,21.98
2023-02-06T11:13:12.067Z,17.92
2023-02-06T11:16:02.733Z,22.55
2023-02-06T11:18:52.075Z,13.77
2023-02-06T11:21:55.122Z,20.93
2023-02-06T11:25:01.232Z,27.52
2023-02-06T11:27:48.377Z,20.38
2023-02-06T11:30:38.957Z,23.00
2023-02-06T11:33:35.894Z,20.55
2023-02-06T11:36:30.613Z,18.00
2023-02-06T11:39:24.450Z,11.73
2023-02-06T11:42:21.741Z,19.15
2023-02-06T11:45:25.738Z,22.23
2023-02-06T11:48:37.845Z,18.65
2023-02-06T11:51:27.818Z,23.42
2023-02-06T11:54:22.022Z,21.60
2023-02-06T11:57:21.482Z,18.98
2023-02-06T12:00:21.636Z,19.20
2023-02-06T12:03:27.557Z,16.38
2023-02-06T12:06:16.648Z,20.45
2023-02-06T12:09:10.531Z,11.85
2023-02-06T12:12:02.601Z,22.42
2023-02-06T12:14:55.347Z,14.55
2023-02-06T12:17:46.087Z,18.90
2023-02-06T12:20:34.944Z,18.77
2023-02-06T12:23:28.920Z,23.98
2023-02-06T12:26:20.529Z,19.50
2023-02-06T12:29:13.018Z,16.10
2023-02-06T12:32:07.561Z,18.05
2023-02-06T12:35:00.337Z,17.50
2023-02-06T12:37:52.409Z,21.77
2023-02-06T12:40:46.102Z,15.07
2023-02-06T12:43:37.484Z,14.98
2023-02-06T12:46:28.393Z,19.92
2023-02-06T12:49:21.587Z,16.05
2023-02-06T12:52:17.028Z,14.90
2023-02-06T12:55:13.364Z,17.70
2023-02-06T12:58:00.475Z,11.43
2023-02-06T13:00:57.464Z,20.33
2023-02-06T13:03:45.789Z,17.85
2023-02-06T13:06:40.640Z,13.77
2023-02-06T13:09:32.394Z,17.83
2023-02-06T13:12:22.622Z,21.65
2023-02-06T13:15:33.620Z,10.82
2023-02-06T13:18:52.456Z,13.73
2023-02-06T13:21:39.167Z,15.73
2023-02-06T13:24:25.863Z,14.18
2023-02-06T13:27:16.059Z,19.55
2023-02-06T13:33:16.395Z,12.85
2023-02-06T13:36:09.945Z,18.55
2023-02-06T13:38:57.324Z,15.38
2023-02-06T13:41:44.661Z,16.88
2023-02-06T13:44:34.692Z,12.13
2023-02-06T13:47:59.179Z,18.00
2023-02-06T13:50:58.534Z,14.15
2023-02-06T13:54:19.583Z,15.23
2023-02-06T13:57:38.591Z,15.45
2023-02-06T14:00:30.203Z,6.47
2023-02-06T14:03:23.665Z,10.95
2023-02-06T14:06:24.611Z,11.68
2023-02-06T14:09:46.516Z,13.55
2023-02-06T14:12:46.945Z,7.95
2023-02-06T14:15:40.769Z,13.52
2023-02-06T14:18:41.518Z,12.93
2023-02-06T14:21:37.416Z,12.23
2023-02-06T14:24:50.986Z,16.10
2023-02-06T14:27:52.586Z,11.82
2023-02-06T14:30:52.131Z,13.82
2023-02-06T14:33:53.164Z,17.33
2023-02-06T14:36:57.790Z,11.40
2023-02-06T14:39:50.510Z,15.80
2023-02-06T14:42:40.090Z,14.32
2023-02-06T14:45:36.048Z,21.67
2023-02-06T14:48:34.063Z,14.85
2023-02-06T14:51:26.168Z,14.55
2023-02-06T14:54:29.961Z,12.88
2023-02-06T14:57:23.084Z,16.90
2023-02-06T15:00:19.219Z,13.75
2023-02-06T15:03:09.008Z,14.30
2023-02-06T15:06:07.042Z,11.30
2023-02-06T15:08:53.840Z,17.65
2023-02-06T15:11:40.473Z,9.82
2023-02-06T15:14:30.746Z,16.45
2023-02-06T15:17:21.393Z,16.48
2023-02-06T15:20:26.211Z,19.95
2023-02-06T15:23:18.825Z,13.52
2023-02-06T15:26:16.151Z,19.65
2023-02-06T15:29:04.779Z,12.93
2023-02-06T15:31:55.745Z,15.18
2023-02-06T15:34:46.710Z,17.75
2023-02-06T15:37:35.700Z,19.90
2023-02-06T15:40:29.826Z,13.02
2023-02-06T15:43:20.015Z,16.88
2023-02-06T15:46:07.210Z,11.45
2023-02-06T15:48:57.394Z,10.70
2023-02-06T15:54:41.065Z,15.55
2023-02-06T15:57:31.811Z,15.55
2023-02-06T16:00:23.926Z,16.15
2023-02-06T16:03:20.928Z,24.85
2023-02-06T16:06:16.417Z,15.93
2023-02-06T16:09:07.213Z,14.77
2023-02-06T16:11:57.003Z,19.52
2023-02-06T16:14:56.410Z,16.67
2023-02-06T16:17:43.140Z,21.92
2023-02-06T16:20:37.149Z,20.35
2023-02-06T16:23:28.237Z,19.52
2023-02-06T16:26:18.198Z,18.42
2023-02-06T16:29:16.287Z,19.48
2023-02-06T16:32:13.231Z,18.95
2023-02-06T16:35:01.216Z,18.13
2023-02-06T16:37:49.991Z,11.60
2023-02-06T16:40:38.541Z,23.65
2023-02-06T16:43:28.709Z,15.45
2023-02-06T16:46:15.832Z,16.35
2023-02-06T16:49:02.541Z,23.75
2023-02-06T16:51:52.343Z,16.95
2023-02-06T16:54:39.004Z,20.60
2023-02-06T16:57:31.252Z,27.75
2023-02-06T17:00:19.966Z,19.75
2023-02-06T17:03:07.132Z,19.33
2023-02-06T17:05:54.679Z,21.90
2023-02-06T17:08:41.343Z,14.27
2023-02-06T17:11:28.035Z,25.85
2023-02-06T17:14:16.098Z,15.15
2023-02-06T17:17:05.375Z,19.52
2023-02-06T17:19:53.026Z,23.13
2023-02-06T17:22:39.574Z,18.55
2023-02-06T17:25:26.827Z,16.85
2023-02-06T17:28:17.146Z,20.83
2023-02-06T17:31:05.723Z,15.98
2023-02-06T17:33:52.113Z,20.58
2023-02-06T17:36:40.850Z,12.50
2023-02-06T17:39:27.516Z,16.60
2023-02-06T17:42:14.891Z,13.95
2023-02-06T17:45:01.836Z,16.17
2023-02-06T17:47:50.034Z,17.13
2023-02-06T17:50:38.368Z,12.70
2023-02-06T17:53:24.879Z,23.15
2023-02-06T17:56:13.209Z,27.27
2023-02-06T17:59:00.053Z,16.08
2023-02-06T18:01:46.699Z,16.48
2023-02-06T18:04:35.098Z,21.17
2023-02-06T18:07:22.150Z,21.88
2023-02-06T18:10:10.995Z,28.48
2023-02-06T18:12:57.620Z,20.73
2023-02-06T18:15:50.200Z,24.10
2023-02-06T18:18:37.041Z,18.50
2023-02-06T18:21:25.378Z,24.35
2023-02-06T18:24:11.744Z,22.67
2023-02-06T18:26:58.470Z,20.27
2023-02-06T18:29:50.213Z,16.40
2023-02-06T18:32:38.965Z,20.42
2023-02-06T18:35:25.549Z,16.27
2023-02-06T18:38:14.281Z,16.20
2023-02-06T18:41:04.559Z,22.98
2023-02-06T18:43:50.458Z,19.95
2023-02-06T18:46:37.996Z,10.45
2023-02-06T18:49:24.654Z,22.38
2023-02-06T18:52:11.473Z,31.42
2023-02-06T18:54:59.629Z,29.67
2023-02-06T18:57:46.544Z,32.95
2023-02-06T19:00:35.875Z,36.17
2023-02-06T19:03:23.146Z,23.35
2023-02-06T19:06:14.954Z,22.05
2023-02-06T19:09:02.165Z,26.02
2023-02-06T19:11:50.282Z,22.85
2023-02-06T19:14:36.996Z,25.33
2023-02-06T19:17:23.925Z,21.73
2023-02-06T19:20:13.045Z,26.98
2023-02-06T19:22:59.672Z,18.25
2023-02-06T19:25:46.343Z,22.13
2023-02-06T19:28:35.783Z,22.75
2023-02-06T19:31:24.686Z,18.90
2023-02-06T19:34:11.943Z,24.90
2023-02-06T19:36:58.484Z,27.92
2023-02-06T19:39:45.299Z,24.75
2023-02-06T19:42:32.058Z,19.70
2023-02-06T19:45:20.177Z,31.25
2023-02-06T19:48:11.923Z,23.65
2023-02-06T19:51:03.512Z,17.70
2023-02-06T19:53:51.070Z,21.88
2023-02-06T19:56:39.588Z,20.27
2023-02-06T19:59:28.529Z,18.38
2023-02-06T20:02:16.715Z,16.92
2023-02-06T20:05:03.389Z,17.63
2023-02-06T20:07:49.887Z,10.95
2023-02-06T20:10:38.293Z,21.77
2023-02-06T20:13:25.478Z,17.40
2023-02-06T20:16:16.641Z,20.33
2023-02-06T20:19:09.645Z,20.15
2023-02-06T20:21:59.131Z,18.40
2023-02-06T20:24:46.118Z,21.63
2023-02-06T20:27:32.895Z,41.25
2023-02-06T20:30:22.032Z,21.20
2023-02-06T20:33:09.384Z,29.05
2023-02-06T20:35:57.484Z,21.25
2023-02-06T20:38:48.314Z,28.70
2023-02-06T20:41:35.268Z,21.92
2023-02-06T20:44:22.524Z,30.30
2023-02-06T20:47:09.388Z,30.73
2023-02-06T20:49:55.951Z,25.80
2023-02-06T20:52:43.888Z,30.88
2023-02-06T20:55:30.814Z,37.05
2023-02-06T20:58:17.133Z,23.85
2023-02-06T21:01:03.750Z,24.02
2023-02-06T21:03:52.481Z,34.70
2023-02-06T21:06:40.635Z,26.55
2023-02-06T21:09:29.112Z,48.08
2023-02-06T21:12:15.927Z,27.55
2023-02-06T21:15:02.417Z,25.50
2023-02-06T21:17:48.841Z,20.02
2023-02-06T21:20:35.676Z,22.65
2023-02-06T21:23:23.183Z,14.55
2023-02-06T21:26:12.770Z,28.02
2023-02-06T21:29:00.204Z,37.30
2023-02-06T21:31:46.844Z,35.50
2023-02-06T21:34:33.515Z,22.95
2023-02-06T21:37:22.395Z,26.08
2023-02-06T21:40:09.349Z,26.10
2023-02-06T21:42:57.500Z,28.80
2023-02-06T21:45:44.851Z,28.23
2023-02-06T21:48:33.904Z,20.92
2023-02-06T21:51:21.555Z,32.42
2023-02-06T21:54:08.056Z,28.25
2023-02-06T21:56:54.660Z,24.67
2023-02-06T21:59:42.357Z,24.33
2023-02-06T22:02:29.033Z,26.48
2023-02-06T22:05:15.652Z,24.80
2023-02-06T22:08:02.220Z,26.45
2023-02-06T22:10:48.867Z,29.73
2023-02-06T22:13:35.703Z,26.13
2023-02-06T22:16:24.823Z,42.35
2023-02-06T22:19:11.714Z,27.58
2023-02-06T22:21:58.448Z,35.63
2023-02-06T22:24:45.195Z,24.77
2023-02-06T22:27:33.719Z,24.30
2023-02-06T22:30:20.635Z,22.23
2023-02-06T22:33:08.970Z,22.88
2023-02-06T22:35:55.570Z,27.35
2023-02-06T22:38:43.715Z,18.00
2023-02-06T22:41:31.011Z,20.73
2023-02-06T22:44:19.112Z,26.23
2023-02-06T22:47:05.666Z,24.02
2023-02-06T22:49:53.680Z,26.88
2023-02-06T22:52:57.373Z,23.20
2023-02-06T22:56:01.985Z,24.23
2023-02-06T22:58:49.485Z,20.85
2023-02-06T23:01:57.698Z,24.95
2023-02-06T23:04:44.289Z,19.55
2023-02-06T23:07:32.380Z,18.05
2023-02-06T23:10:19.075Z,21.92
2023-02-06T23:13:05.275Z,19.60
2023-02-06T23:15:52.356Z,19.98
2023-02-06T23:18:39.142Z,19.70
2023-02-06T23:21:27.212Z,22.58
2023-02-06T23:24:15.883Z,19.33
2023-02-06T23:27:02.397Z,23.05
2023-02-06T23:29:48.790Z,23.30
2023-02-06T23:32:35.716Z,24.67
2023-02-06T23:35:22.104Z,28.40
2023-02-06T23:38:09.662Z,25.77
2023-02-06T23:40:57.478Z,31.45
2023-02-06T23:43:44.637Z,25.15
2023-02-06T23:46:33.381Z,26.08
2023-02-06T23:49:19.769Z,24.75
2023-02-06T23:52:06.421Z,21.08
2023-02-06T23:54:53.344Z,24.52
2023-02-06T23:57:41.432Z,16.40
